Etusivu
METAR-TAF:

METAR-TAF

Lentoasemat :

Límnoksen kansainvälinen lentoasema

Límnos, Kreikka

Leveyspiiri: 39-55N, Pituuspiiri: 025-14E, korkeus merenpinnasta: 5 m

Tämänhetkinen sää

Tämä raportti tehtiin 23 minuuttia sitten, kello 13.20 UTC
Tuuli 14 kn pohjoisesta/koillisesta puuskistuen 24 kn:hen
Lämpötila 30°C
Kosteus 46%
Ilmanpaine 1006 hPa
Näkyvyys 10 km tai enemmän
ei pilviä alle 1500 m:ssä eikä cumulonimbus-pilviä

METAR: LGLM 231320Z 03014G24KT CAVOK 30/17 Q1006

Aika: 16:43 (13:43 UTC)

Sääennuste

Tämä raportti tehtiin 2 tuntia ja 43 minuuttia sitten, kello 11.00 UTC
Ennuste voimassa 23. päivästä klo 12 UTC - 23. päivään klo 21 UTC
Tuuli 14 kn pohjoisesta puuskistuen 24 kn:hen
Näkyvyys 10 km tai enemmän
ei pilviä alle 1500 m:ssä eikä cumulonimbus-pilviä

TAF: LGLM 231100Z 2312/2321 01014G24KT CAVOK

Säähavainnot ja -ennusteet yli 4000 lentoasemalta (METAR- ja TAF-raportit).

Käytössä olevat sääasemat on merkitty karttaan keltaisilla ja punaisilla pisteillä.

Aseta hiiri pisteen päälle nähdäksesi sääaseman nimen.

Klikkaa sitten nähdäksesi säähavainnot ja -ennusteet.

Kartan vaihtaminen: klikkaa mustalla rastilla varustettuja vihreitä pisteitä, niin voit zoomata sisään; viivalla varustettua vihreää pistettä, niin voit zoomata ulos tai vihreitä nuolia, niin pääset viereisille kartoille.


METAR-TAF: